Time;durP1;ratioP1;P1;durP2;ratioP2;P2;SDS_P1;SDS_P2;PMS_P1;PMS_P2;Temp;Humidity;BMP_temperature;BMP_pressure;BME280_temperature;BME280_humidity;BME280_pressure;Samples;Min_cycle;Max_cycle;Signal;HPM_P1;HPM_P2
2022/12/09 00:01:09;;;;;;;10.50;5.57;;;7.00;54.20;;;;;;5017076;28;20057;-53
2022/12/09 00:03:37;;;;;;;8.15;4.78;;;7.00;54.20;;;;;;5021847;28;20049;-50
2022/12/09 00:06:11;;;;;;;11.35;5.28;;;7.00;54.20;;;;;;5016370;28;20428;-52
2022/12/09 00:08:38;;;;;;;7.70;4.97;;;7.00;54.20;;;;;;5024259;28;20873;-54
2022/12/09 00:11:07;;;;;;;10.65;6.10;;;7.00;54.20;;;;;;5023119;28;20041;-55
2022/12/09 00:13:35;;;;;;;9.65;5.53;;;7.00;54.20;;;;;;5024244;28;20045;-53
2022/12/09 00:16:06;;;;;;;10.23;5.47;;;7.00;54.20;;;;;;5025465;28;20413;-55
2022/12/09 00:18:34;;;;;;;9.82;5.57;;;7.00;54.30;;;;;;5024729;28;20440;-55
2022/12/09 00:21:13;;;;;;;9.85;6.30;;;7.00;54.30;;;;;;5019719;28;20054;-51
2022/12/09 00:23:40;;;;;;;9.80;6.43;;;7.00;54.30;;;;;;5021063;28;20425;-51
2022/12/09 00:26:08;;;;;;;9.68;5.80;;;7.00;54.30;;;;;;5023177;28;20413;-52
2022/12/09 00:28:35;;;;;;;10.32;6.07;;;7.00;54.30;;;;;;5025082;28;20053;-52
2022/12/09 00:31:03;;;;;;;10.40;6.22;;;7.00;54.30;;;;;;5021623;28;20061;-52
2022/12/09 00:33:31;;;;;;;9.13;5.63;;;7.00;54.30;;;;;;5021861;28;20053;-55
2022/12/09 00:36:05;;;;;;;9.23;6.35;;;7.00;54.20;;;;;;5023690;28;20383;-55
2022/12/09 00:38:33;;;;;;;9.30;6.03;;;7.00;54.20;;;;;;5022802;28;20056;-49
2022/12/09 00:41:00;;;;;;;10.93;6.10;;;7.00;54.70;;;;;;5021070;28;20065;-55
2022/12/09 00:43:28;;;;;;;10.55;6.20;;;7.00;54.30;;;;;;5023917;28;20068;-55
2022/12/09 00:45:55;;;;;;;11.93;5.97;;;7.00;54.40;;;;;;5022728;28;20057;-55
2022/12/09 00:48:23;;;;;;;12.77;6.13;;;7.00;54.40;;;;;;5023627;28;20058;-54
2022/12/09 00:50:50;;;;;;;12.65;6.72;;;7.00;54.40;;;;;;5017877;28;20066;-55
2022/12/09 00:53:17;;;;;;;13.43;7.45;;;7.00;54.30;;;;;;5018600;28;20064;-52
2022/12/09 00:55:46;;;;;;;15.50;6.70;;;7.00;54.30;;;;;;5022599;28;20049;-55
2022/12/09 00:58:14;;;;;;;10.73;5.95;;;7.00;54.20;;;;;;5023548;28;20045;-54
2022/12/09 01:00:42;;;;;;;11.18;6.28;;;6.90;54.20;;;;;;5022066;28;20410;-53
2022/12/09 01:03:12;;;;;;;11.40;6.03;;;6.90;54.20;;;;;;5022680;28;20054;-53
2022/12/09 01:05:39;;;;;;;10.18;5.55;;;6.90;54.20;;;;;;5022190;28;20046;-56
2022/12/09 01:08:07;;;;;;;11.13;5.93;;;6.90;54.30;;;;;;5021605;28;20060;-55
2022/12/09 01:10:35;;;;;;;8.13;5.55;;;6.90;54.40;;;;;;5021921;28;20405;-52
2022/12/09 01:13:03;;;;;;;11.35;6.03;;;6.90;54.40;;;;;;5024273;28;20057;-54
2022/12/09 01:15:31;;;;;;;8.98;5.30;;;6.90;54.40;;;;;;5023556;28;20049;-55
2022/12/09 01:17:58;;;;;;;9.82;5.68;;;6.90;54.40;;;;;;5022986;28;20061;-55
2022/12/09 01:20:25;;;;;;;10.75;5.30;;;6.80;54.40;;;;;;5020074;28;20058;-52
2022/12/09 01:22:53;;;;;;;7.85;5.20;;;6.90;54.40;;;;;;5021379;28;20065;-54
2022/12/09 01:25:20;;;;;;;10.75;5.00;;;6.80;54.40;;;;;;5024186;28;20054;-51
2022/12/09 01:27:47;;;;;;;9.80;5.10;;;6.80;54.40;;;;;;5024485;28;20058;-47
2022/12/09 01:30:16;;;;;;;8.32;5.22;;;6.80;54.50;;;;;;5022330;28;20049;-54
2022/12/09 01:32:43;;;;;;;8.13;5.18;;;6.80;54.50;;;;;;5019936;28;20057;-55
2022/12/09 01:35:11;;;;;;;11.48;5.40;;;6.80;54.60;;;;;;5019195;28;20524;-55
2022/12/09 01:37:38;;;;;;;8.15;5.15;;;6.80;54.50;;;;;;5022467;28;20429;-55
2022/12/09 01:40:08;;;;;;;8.35;5.38;;;6.80;54.60;;;;;;5021471;28;20057;-52
2022/12/09 01:42:36;;;;;;;10.23;5.88;;;6.80;54.60;;;;;;5022274;28;20064;-53
2022/12/09 01:48:06;;;;;;;9.23;5.68;;;6.90;54.60;;;;;;5076885;27;20908;-54
2022/12/09 01:50:34;;;;;;;9.52;6.30;;;6.80;54.60;;;;;;5072021;28;20064;-54
2022/12/09 01:53:02;;;;;;;12.00;6.72;;;6.80;54.60;;;;;;5079006;28;20499;-52
2022/12/09 01:55:29;;;;;;;13.05;7.20;;;6.80;54.60;;;;;;5079769;28;20412;-54
2022/12/09 01:57:56;;;;;;;12.27;7.03;;;6.80;54.60;;;;;;5075824;28;20048;-55
2022/12/09 02:00:24;;;;;;;12.02;7.50;;;6.80;54.60;;;;;;5073354;28;20067;-54
2022/12/09 02:02:53;;;;;;;12.70;6.97;;;6.80;54.60;;;;;;5077479;28;20354;-54
2022/12/09 02:05:23;;;;;;;12.45;7.07;;;6.80;54.60;;;;;;5075469;28;20059;-51
2022/12/09 02:07:50;;;;;;;12.32;7.38;;;6.80;54.60;;;;;;5072097;28;20040;-52
2022/12/09 02:10:18;;;;;;;12.70;7.78;;;6.80;54.60;;;;;;5076020;28;20411;-48
2022/12/09 02:12:55;;;;;;;13.60;7.50;;;6.80;54.60;;;;;;5078970;28;20052;-55
2022/12/09 02:15:25;;;;;;;11.57;7.20;;;6.80;54.60;;;;;;5078620;28;20114;-51
2022/12/09 02:17:57;;;;;;;12.75;7.28;;;6.80;54.60;;;;;;5076864;28;20075;-51
2022/12/09 02:20:34;;;;;;;11.95;6.78;;;6.80;54.60;;;;;;5070099;28;20061;-52
2022/12/09 02:23:07;;;;;;;11.15;6.85;;;6.80;54.60;;;;;;5076497;28;20070;-54
2022/12/09 02:25:40;;;;;;;13.55;7.55;;;6.80;54.60;;;;;;5076593;28;20070;-55
2022/12/09 02:28:27;;;;;;;15.57;7.47;;;6.80;54.60;;;;;;5079586;28;20052;-54
2022/12/09 02:31:04;;;;;;;11.85;6.93;;;6.80;54.70;;;;;;5071932;28;20251;-54
2022/12/09 02:33:40;;;;;;;11.88;7.38;;;6.70;54.60;;;;;;5073008;28;20052;-52
2022/12/09 02:36:14;;;;;;;9.73;6.25;;;6.70;54.60;;;;;;5073898;28;20044;-55
2022/12/09 02:38:42;;;;;;;12.13;6.47;;;6.80;54.70;;;;;;5063614;28;20044;-55
2022/12/09 02:41:15;;;;;;;11.40;7.55;;;6.70;54.70;;;;;;5072350;28;20052;-51
2022/12/09 02:43:47;;;;;;;13.88;7.75;;;6.70;54.70;;;;;;5078698;28;20056;-52
2022/12/09 02:46:16;;;;;;;12.40;7.97;;;6.70;54.80;;;;;;5075492;28;20079;-53
2022/12/09 02:48:48;;;;;;;11.73;7.85;;;6.70;54.80;;;;;;5072517;28;20052;-55
2022/12/09 02:51:19;;;;;;;13.15;8.20;;;6.70;54.80;;;;;;5069095;28;20055;-55
2022/12/09 02:53:50;;;;;;;13.95;7.93;;;6.70;54.80;;;;;;5075293;28;20044;-51
2022/12/09 02:56:18;;;;;;;12.23;7.88;;;6.70;54.80;;;;;;5075672;28;20052;-51
2022/12/09 02:58:45;;;;;;;13.63;7.65;;;6.70;54.80;;;;;;5058658;28;20053;-55
2022/12/09 03:01:21;;;;;;;13.35;7.85;;;6.70;54.80;;;;;;5059329;28;20056;-54
2022/12/09 03:03:49;;;;;;;15.75;8.68;;;6.70;54.80;;;;;;5062356;28;20040;-55
2022/12/09 03:06:20;;;;;;;12.80;7.78;;;6.60;54.70;;;;;;5055125;28;20068;-54
2022/12/09 03:08:52;;;;;;;12.60;7.45;;;6.60;54.70;;;;;;5057463;28;20064;-46
2022/12/09 03:11:21;;;;;;;17.00;8.40;;;6.70;54.80;;;;;;5036293;28;20048;-53
2022/12/09 03:13:58;;;;;;;11.15;7.38;;;6.60;54.80;;;;;;5047603;28;20048;-52
2022/12/09 03:16:32;;;;;;;12.73;8.27;;;6.60;54.80;;;;;;5045118;28;20080;-55
2022/12/09 03:19:06;;;;;;;12.27;7.50;;;6.60;54.80;;;;;;5057167;28;20059;-54
2022/12/09 03:21:40;;;;;;;14.18;8.10;;;6.60;54.80;;;;;;5057235;28;20056;-55
2022/12/09 03:24:08;;;;;;;;;;;6.60;54.80;;;;;;5051433;28;20373;-55
2022/12/09 03:26:38;;;;;;;14.10;7.82;;;6.60;54.90;;;;;;5058173;28;19935;-54
2022/12/09 03:29:11;;;;;;;17.02;8.85;;;6.60;54.70;;;;;;5055812;28;20049;-43
2022/12/09 03:31:39;;;;;;;14.18;8.30;;;6.60;54.70;;;;;;5054575;28;20055;-43
2022/12/09 03:34:09;;;;;;;16.15;8.85;;;6.60;54.80;;;;;;5060249;28;20519;-44
2022/12/09 03:36:40;;;;;;;14.88;8.60;;;6.60;54.80;;;;;;5060431;28;20052;-42
2022/12/09 03:39:13;;;;;;;14.82;9.48;;;6.60;54.80;;;;;;5064686;28;20059;-42
2022/12/09 03:41:45;;;;;;;15.18;9.25;;;6.60;54.90;;;;;;5086291;22;20079;-85
2022/12/09 03:44:21;;;;;;;16.67;9.77;;;6.60;54.90;;;;;;5102488;27;20051;-84
2022/12/09 03:46:48;;;;;;;15.57;9.50;;;6.60;54.90;;;;;;5102840;27;20066;-84
2022/12/09 03:49:16;;;;;;;16.60;9.73;;;6.50;54.90;;;;;;5119188;22;20051;-53
2022/12/09 03:51:50;;;;;;;13.65;9.02;;;6.60;54.90;;;;;;5082642;28;20063;-53
2022/12/09 03:54:20;;;;;;;;;;;6.50;54.90;;;;;;5086048;28;20425;-46
2022/12/09 03:56:52;;;;;;;16.67;10.40;;;6.60;55.00;;;;;;5083049;28;20377;-46
2022/12/09 03:59:22;;;;;;;17.15;9.38;;;6.60;54.90;;;;;;5076551;28;20395;-41
2022/12/09 04:01:50;;;;;;;16.58;10.15;;;6.50;54.80;;;;;;5081577;28;20048;-44
2022/12/09 04:04:17;;;;;;;15.43;9.55;;;6.50;54.80;;;;;;5083940;28;20149;-45
2022/12/09 04:06:46;;;;;;;17.67;10.32;;;6.50;54.80;;;;;;5082461;28;20059;-40
2022/12/09 04:09:14;;;;;;;15.35;9.48;;;6.50;54.80;;;;;;5083976;28;20267;-46
2022/12/09 04:11:42;;;;;;;18.38;10.45;;;6.50;54.90;;;;;;5081076;28;20051;-42
2022/12/09 04:14:09;;;;;;;18.00;10.63;;;6.40;54.90;;;;;;5084780;28;20533;-41
2022/12/09 04:16:36;;;;;;;19.35;11.18;;;6.40;55.00;;;;;;5083275;28;20585;-44
2022/12/09 04:19:04;;;;;;;22.67;11.23;;;6.40;55.00;;;;;;5084264;28;20058;-44
2022/12/09 04:21:31;;;;;;;16.95;10.23;;;6.40;55.00;;;;;;5074334;28;20056;-46
2022/12/09 04:24:00;;;;;;;18.85;10.98;;;6.40;55.00;;;;;;5023938;28;20061;-43
2022/12/09 04:26:27;;;;;;;17.90;11.85;;;6.40;55.10;;;;;;5024597;28;20057;-43
2022/12/09 04:28:54;;;;;;;21.90;12.82;;;6.40;55.10;;;;;;5023619;28;20057;-43
2022/12/09 04:31:21;;;;;;;20.05;11.70;;;6.40;55.20;;;;;;5020776;28;20054;-42
2022/12/09 04:33:48;;;;;;;18.55;11.32;;;6.40;55.30;;;;;;5019569;28;20053;-42
2022/12/09 04:36:18;;;;;;;22.85;13.30;;;6.30;55.30;;;;;;5022632;28;20057;-41
2022/12/09 04:38:45;;;;;;;21.77;12.68;;;6.40;55.40;;;;;;5023955;28;20152;-45
2022/12/09 04:41:15;;;;;;;23.58;13.52;;;6.40;55.40;;;;;;5021820;28;20411;-44
2022/12/09 04:43:42;;;;;;;21.15;12.05;;;6.40;55.40;;;;;;5024126;28;20053;-41
2022/12/09 04:46:13;;;;;;;17.60;10.98;;;6.40;55.30;;;;;;5023979;28;20053;-42
2022/12/09 04:48:40;;;;;;;83.32;34.45;;;6.30;55.30;;;;;;5019402;28;20045;-44
2022/12/09 04:51:08;;;;;;;105.25;42.65;;;6.30;55.40;;;;;;5020343;28;20057;-48
2022/12/09 04:53:36;;;;;;;50.70;22.90;;;6.30;55.50;;;;;;5021112;28;20062;-43
2022/12/09 04:56:07;;;;;;;28.17;15.50;;;6.30;55.50;;;;;;5022885;28;20539;-47
2022/12/09 04:58:35;;;;;;;19.83;12.52;;;6.30;55.50;;;;;;5019032;28;20053;-44
2022/12/09 05:01:06;;;;;;;17.67;11.35;;;6.30;55.50;;;;;;5016584;28;20591;-43
2022/12/09 05:03:33;;;;;;;17.88;11.70;;;6.30;55.50;;;;;;5019728;28;20404;-44
2022/12/09 05:06:03;;;;;;;18.55;11.43;;;6.30;55.50;;;;;;5017115;28;20049;-42
2022/12/09 05:08:31;;;;;;;20.80;11.65;;;6.30;56.00;;;;;;5023210;28;20408;-42
2022/12/09 05:10:58;;;;;;;19.95;12.52;;;6.30;55.50;;;;;;5018335;28;20076;-41
2022/12/09 05:13:26;;;;;;;22.13;11.77;;;6.30;55.40;;;;;;5020273;28;20065;-48
2022/12/09 05:15:59;;;;;;;19.05;10.57;;;6.30;55.40;;;;;;5018753;28;20060;-45
2022/12/09 05:18:26;;;;;;;21.45;11.18;;;6.30;55.40;;;;;;5016074;28;20046;-45
2022/12/09 05:20:54;;;;;;;19.65;11.10;;;6.30;55.40;;;;;;5017046;28;20061;-44
2022/12/09 05:23:21;;;;;;;19.08;11.40;;;6.30;55.40;;;;;;5020875;28;20061;-47
2022/12/09 05:25:48;;;;;;;19.08;11.27;;;6.30;55.30;;;;;;5019623;28;20049;-43
2022/12/09 05:28:16;;;;;;;18.65;11.80;;;6.30;55.30;;;;;;5019351;28;21123;-44
2022/12/09 05:30:43;;;;;;;18.20;11.40;;;6.30;55.30;;;;;;5009617;28;20050;-43
2022/12/09 05:33:12;;;;;;;17.80;10.27;;;6.20;55.30;;;;;;5020951;28;20052;-41
2022/12/09 05:35:39;;;;;;;19.10;11.73;;;6.20;55.30;;;;;;5019747;28;20064;-44
2022/12/09 05:38:06;;;;;;;18.58;10.13;;;6.20;55.30;;;;;;5021964;28;20049;-48
2022/12/09 05:40:33;;;;;;;15.32;9.93;;;6.10;55.30;;;;;;5016451;28;20057;-44
2022/12/09 05:43:01;;;;;;;17.92;10.55;;;6.20;55.40;;;;;;5022169;28;20049;-43
2022/12/09 05:45:28;;;;;;;20.63;10.55;;;6.10;55.40;;;;;;5021460;28;20050;-42
2022/12/09 05:47:55;;;;;;;16.40;10.27;;;6.10;55.40;;;;;;5021603;28;20050;-43
2022/12/09 05:50:24;;;;;;;19.48;10.63;;;6.10;55.50;;;;;;5020272;28;20678;-44
2022/12/09 05:52:51;;;;;;;18.95;10.70;;;6.10;55.50;;;;;;5021043;28;20053;-43
2022/12/09 05:55:18;;;;;;;18.25;9.75;;;6.10;55.50;;;;;;5019014;28;20060;-43
2022/12/09 05:57:45;;;;;;;17.90;10.20;;;6.10;55.50;;;;;;5021885;28;20053;-42
2022/12/09 06:00:14;;;;;;;24.45;11.65;;;6.00;55.40;;;;;;5017788;28;20053;-44
2022/12/09 06:02:41;;;;;;;24.15;13.73;;;6.00;55.40;;;;;;5022084;28;20468;-44
2022/12/09 06:05:09;;;;;;;26.45;14.90;;;6.00;55.50;;;;;;5019438;28;20490;-44
2022/12/09 06:07:38;;;;;;;22.83;13.98;;;6.00;55.50;;;;;;5020898;28;20061;-44
2022/12/09 06:10:06;;;;;;;24.25;14.35;;;6.00;55.50;;;;;;5019554;28;20251;-45
2022/12/09 06:12:33;;;;;;;23.80;13.38;;;5.90;55.50;;;;;;5015713;28;20046;-44
2022/12/09 06:15:01;;;;;;;27.20;14.88;;;5.90;56.00;;;;;;5015689;28;20057;-42
2022/12/09 06:17:28;;;;;;;23.45;13.50;;;5.90;55.60;;;;;;5007037;28;20053;-45
2022/12/09 06:19:55;;;;;;;24.73;15.10;;;5.90;55.70;;;;;;5010958;28;20059;-43
2022/12/09 06:22:23;;;;;;;22.52;14.07;;;5.80;55.70;;;;;;5006800;28;20064;-42
2022/12/09 06:24:51;;;;;;;24.25;14.45;;;5.80;55.70;;;;;;5015121;28;20061;-43
2022/12/09 06:27:19;;;;;;;28.40;15.45;;;5.80;55.80;;;;;;5020818;28;20056;-43
2022/12/09 06:29:46;;;;;;;25.38;15.75;;;5.80;55.80;;;;;;5019359;28;20045;-42
2022/12/09 06:32:13;;;;;;;25.80;14.82;;;5.80;55.80;;;;;;5012709;28;20496;-45
2022/12/09 06:34:40;;;;;;;218.57;78.45;;;5.80;55.90;;;;;;5014907;28;20064;-43
2022/12/09 06:37:07;;;;;;;106.65;44.22;;;5.80;55.90;;;;;;5016424;28;20554;-41
2022/12/09 06:39:35;;;;;;;44.53;22.90;;;5.80;55.90;;;;;;5024166;28;20065;-44
2022/12/09 06:42:04;;;;;;;28.48;16.55;;;5.80;56.00;;;;;;5019522;28;20050;-43
2022/12/09 06:44:31;;;;;;;23.95;14.00;;;5.80;56.00;;;;;;5020393;28;20045;-47
2022/12/09 06:46:59;;;;;;;24.98;15.02;;;5.80;56.00;;;;;;5022815;28;20056;-48
2022/12/09 06:49:26;;;;;;;25.52;14.40;;;5.70;55.90;;;;;;5021713;28;20057;-42
2022/12/09 06:51:53;;;;;;;23.50;14.00;;;5.80;55.90;;;;;;5015019;28;20053;-42
2022/12/09 06:54:20;;;;;;;24.65;14.57;;;5.80;55.90;;;;;;5025119;28;20053;-43
2022/12/09 06:56:48;;;;;;;24.58;14.90;;;5.70;55.90;;;;;;5022278;28;20061;-44
2022/12/09 06:59:17;;;;;;;24.85;14.20;;;5.70;56.00;;;;;;5023575;28;20057;-42
2022/12/09 07:01:44;;;;;;;26.38;15.50;;;5.70;56.00;;;;;;5009679;28;20053;-45
2022/12/09 07:04:14;;;;;;;27.35;15.65;;;5.70;56.00;;;;;;5019764;28;20068;-42
2022/12/09 07:06:43;;;;;;;24.60;14.23;;;5.70;56.00;;;;;;5020803;28;20049;-44
2022/12/09 07:09:12;;;;;;;29.75;16.70;;;5.70;56.10;;;;;;5021103;28;20049;-45
2022/12/09 07:11:41;;;;;;;27.30;15.55;;;5.70;56.10;;;;;;5019860;28;20496;-43
2022/12/09 07:14:09;;;;;;;27.50;15.95;;;5.70;56.10;;;;;;5022843;28;20500;-42
2022/12/09 07:16:38;;;;;;;29.92;17.40;;;5.70;56.10;;;;;;5024851;28;20049;-42
2022/12/09 07:19:05;;;;;;;27.90;16.15;;;5.60;56.00;;;;;;5024042;28;20056;-43
2022/12/09 07:21:33;;;;;;;25.23;14.85;;;5.60;56.00;;;;;;5017466;28;20076;-44
2022/12/09 07:24:01;;;;;;;24.08;13.90;;;5.60;56.00;;;;;;5021694;28;20408;-43
2022/12/09 07:26:31;;;;;;;24.65;14.45;;;5.60;56.10;;;;;;5025029;28;20473;-41
2022/12/09 07:29:01;;;;;;;24.75;14.48;;;5.60;56.10;;;;;;5021107;28;20054;-44
2022/12/09 07:31:29;;;;;;;26.08;14.90;;;5.60;56.10;;;;;;5015036;28;20053;-44
2022/12/09 07:33:58;;;;;;;26.05;14.88;;;5.60;56.10;;;;;;5016751;28;20064;-42
2022/12/09 07:36:28;;;;;;;26.70;15.30;;;5.60;56.20;;;;;;5010179;28;20361;-42
2022/12/09 07:38:56;;;;;;;28.15;16.73;;;5.60;56.20;;;;;;5020782;28;20385;-48
2022/12/09 07:41:24;;;;;;;32.50;17.67;;;5.60;56.20;;;;;;5017093;28;20049;-46
2022/12/09 07:43:51;;;;;;;31.65;17.50;;;5.60;56.30;;;;;;5018996;28;20061;-43
2022/12/09 07:46:20;;;;;;;30.45;17.17;;;5.60;56.30;;;;;;5023924;28;20049;-43
2022/12/09 07:48:49;;;;;;;33.60;17.05;;;5.50;56.30;;;;;;5023062;28;20052;-43
2022/12/09 07:51:18;;;;;;;31.70;17.63;;;5.60;56.40;;;;;;5010846;28;20049;-49
2022/12/09 07:53:46;;;;;;;30.95;16.88;;;5.60;56.40;;;;;;5022381;28;20492;-44
2022/12/09 07:56:14;;;;;;;31.42;17.25;;;5.60;56.50;;;;;;5024012;28;20053;-42
2022/12/09 07:58:42;;;;;;;28.63;16.30;;;5.60;56.50;;;;;;5021844;28;20049;-41
2022/12/09 08:01:11;;;;;;;31.85;18.17;;;5.60;56.50;;;;;;5017917;28;20060;-46
2022/12/09 08:03:40;;;;;;;32.00;17.27;;;5.60;56.60;;;;;;5021719;28;20076;-42
2022/12/09 08:06:08;;;;;;;32.08;18.30;;;5.60;56.60;;;;;;5022875;28;20392;-42
2022/12/09 08:08:37;;;;;;;33.50;19.17;;;5.60;56.60;;;;;;5017149;28;20052;-47
2022/12/09 08:11:08;;;;;;;33.13;17.95;;;5.60;56.60;;;;;;5020421;28;20053;-45
2022/12/09 08:13:35;;;;;;;33.63;17.55;;;5.60;56.60;;;;;;5016936;28;20689;-43
2022/12/09 08:16:04;;;;;;;32.95;18.27;;;5.60;56.60;;;;;;5015825;28;20053;-47
2022/12/09 08:18:31;;;;;;;32.88;17.88;;;5.60;56.50;;;;;;5011840;28;20416;-44
2022/12/09 08:21:00;;;;;;;31.17;17.00;;;5.60;56.50;;;;;;5018422;28;20068;-43
2022/12/09 08:23:28;;;;;;;33.70;17.58;;;5.70;56.50;;;;;;5021106;28;20056;-42
2022/12/09 08:25:59;;;;;;;31.20;18.02;;;5.60;56.50;;;;;;5023646;28;20061;-42
2022/12/09 08:28:29;;;;;;;38.05;19.58;;;5.60;56.50;;;;;;5018953;28;20055;-41
2022/12/09 08:30:57;;;;;;;33.42;19.33;;;5.60;56.50;;;;;;5013977;28;20041;-44
2022/12/09 08:33:25;;;;;;;34.53;17.63;;;5.60;56.50;;;;;;5021169;28;20046;-44
2022/12/09 08:35:53;;;;;;;34.78;19.02;;;5.60;56.50;;;;;;5021707;28;20053;-45
2022/12/09 08:38:21;;;;;;;38.97;20.65;;;5.60;56.50;;;;;;5020768;28;20430;-42
2022/12/09 08:40:49;;;;;;;39.97;20.88;;;5.60;56.50;;;;;;5014958;28;20053;-48
2022/12/09 08:43:18;;;;;;;38.10;20.80;;;5.60;56.50;;;;;;5019484;28;20057;-42
2022/12/09 08:45:45;;;;;;;38.03;20.27;;;5.60;56.50;;;;;;5023958;28;20049;-44
2022/12/09 08:48:13;;;;;;;40.70;21.02;;;5.60;56.50;;;;;;5018403;28;20060;-44
2022/12/09 08:50:40;;;;;;;38.30;20.15;;;5.60;56.40;;;;;;5010741;28;21002;-42
2022/12/09 08:53:07;;;;;;;41.13;21.48;;;5.60;56.50;;;;;;5022925;28;20069;-46
2022/12/09 08:55:37;;;;;;;34.92;18.60;;;5.60;56.60;;;;;;5017956;28;20054;-44
2022/12/09 08:58:05;;;;;;;35.20;19.08;;;5.60;56.70;;;;;;5020529;28;20049;-46
2022/12/09 09:00:33;;;;;;;32.15;18.17;;;5.60;56.80;;;;;;5017736;28;20053;-41
2022/12/09 09:03:00;;;;;;;36.92;19.70;;;5.60;56.80;;;;;;5021689;28;20050;-44
2022/12/09 09:05:28;;;;;;;43.47;22.58;;;5.60;56.90;;;;;;5021902;28;20056;-47
2022/12/09 09:07:55;;;;;;;34.85;18.52;;;5.60;56.90;;;;;;5015144;28;20061;-47
2022/12/09 09:10:22;;;;;;;33.97;19.40;;;5.70;57.00;;;;;;5010846;28;20049;-44
2022/12/09 09:12:50;;;;;;;31.42;17.70;;;5.70;57.00;;;;;;5019788;28;20404;-44
2022/12/09 09:15:17;;;;;;;30.27;18.25;;;5.70;57.00;;;;;;5023291;28;20052;-48
2022/12/09 09:17:45;;;;;;;29.88;17.08;;;5.70;57.00;;;;;;5020244;28;20060;-42
2022/12/09 09:20:13;;;;;;;31.27;18.00;;;5.70;57.50;;;;;;5007798;28;20053;-49
2022/12/09 09:22:40;;;;;;;33.05;18.10;;;5.70;57.00;;;;;;5016826;28;20057;-45
2022/12/09 09:25:08;;;;;;;31.55;18.05;;;5.80;57.00;;;;;;5012249;28;20060;-49
2022/12/09 09:27:35;;;;;;;31.65;17.60;;;5.80;57.00;;;;;;5018207;28;20056;-43
2022/12/09 09:30:03;;;;;;;32.83;18.67;;;5.80;56.90;;;;;;5015894;28;20439;-49
2022/12/09 09:32:31;;;;;;;34.58;19.92;;;5.80;56.90;;;;;;5011679;28;20061;-42
2022/12/09 09:35:00;;;;;;;30.17;17.63;;;5.80;57.30;;;;;;5018581;28;20076;-45
2022/12/09 09:37:27;;;;;;;31.40;17.52;;;5.80;56.80;;;;;;5020180;28;20057;-42
2022/12/09 09:39:54;;;;;;;32.97;19.23;;;5.80;56.80;;;;;;5008516;28;20069;-46
2022/12/09 09:42:26;;;;;;;34.63;18.65;;;5.80;56.70;;;;;;5016243;28;21791;-43
2022/12/09 09:44:55;;;;;;;35.65;19.48;;;5.80;56.70;;;;;;5021401;28;20061;-41
2022/12/09 09:47:28;;;;;;;30.63;18.20;;;5.80;57.20;;;;;;5016482;28;20061;-45
2022/12/09 09:49:58;;;;;;;34.03;17.90;;;5.80;56.80;;;;;;5019114;28;20049;-41
2022/12/09 09:52:29;;;;;;;35.00;19.83;;;5.80;56.80;;;;;;5008932;28;20057;-43
2022/12/09 09:54:57;;;;;;;34.47;19.38;;;5.80;56.90;;;;;;5018415;28;20054;-47
2022/12/09 09:57:32;;;;;;;30.05;17.45;;;5.80;56.90;;;;;;5015461;28;20053;-41
2022/12/09 10:00:13;;;;;;;33.33;18.65;;;5.80;56.80;;;;;;5014495;28;21350;-41
2022/12/09 10:02:56;;;;;;;29.60;17.27;;;5.80;56.80;;;;;;5014050;28;20488;-43
2022/12/09 10:05:29;;;;;;;33.85;18.42;;;5.90;56.80;;;;;;5021880;28;20404;-48
2022/12/09 10:08:07;;;;;;;28.52;16.33;;;5.90;56.80;;;;;;5017977;28;22140;-45
2022/12/09 10:10:43;;;;;;;25.98;14.85;;;5.90;56.80;;;;;;5016227;28;20053;-45
2022/12/09 10:13:23;;;;;;;23.27;14.02;;;5.90;56.80;;;;;;5008795;28;20061;-45
2022/12/09 10:16:00;;;;;;;20.63;12.73;;;5.90;56.60;;;;;;5026256;28;20439;-44
2022/12/09 10:18:35;;;;;;;31.73;13.45;;;5.90;56.50;;;;;;5022224;28;20057;-44
2022/12/09 10:21:09;;;;;;;23.23;13.65;;;5.90;56.40;;;;;;5020142;28;20587;-44
2022/12/09 10:23:38;;;;;;;21.58;13.27;;;5.80;56.40;;;;;;5023474;28;20140;-47
2022/12/09 10:26:11;;;;;;;19.42;11.77;;;5.80;56.30;;;;;;5018188;28;20080;-42
2022/12/09 10:28:42;;;;;;;19.48;12.60;;;5.80;56.40;;;;;;5026860;28;20053;-46
2022/12/09 10:31:11;;;;;;;24.15;12.07;;;5.80;56.40;;;;;;5018459;28;22031;-46
2022/12/09 10:33:39;;;;;;;22.50;12.93;;;5.80;56.40;;;;;;5023440;28;20053;-46
2022/12/09 10:36:19;;;;;;;22.77;13.10;;;5.80;56.40;;;;;;5023391;28;20053;-43
2022/12/09 10:38:48;;;;;;;19.08;11.93;;;5.80;56.30;;;;;;5017356;28;20060;-41
2022/12/09 10:43:33;;;;;;;24.30;12.77;;;5.70;56.30;;;;;;5016233;28;20049;-47
2022/12/09 10:44:20;;;;;;;20.77;12.55;;;5.70;56.30;;;;;;5017505;28;20060;-42
2022/12/09 10:46:49;;;;;;;19.40;12.82;;;5.70;56.40;;;;;;5019172;28;20448;-47
2022/12/09 10:49:20;;;;;;;20.17;13.05;;;5.70;56.40;;;;;;5015650;28;20057;-44
2022/12/09 10:51:49;;;;;;;20.67;12.45;;;5.70;56.50;;;;;;5020266;28;20056;-45
2022/12/09 10:54:29;;;;;;;22.38;12.75;;;5.70;56.50;;;;;;5024530;28;20053;-48
2022/12/09 10:57:21;;;;;;;25.23;13.50;;;5.70;56.50;;;;;;5026433;28;20060;-42
2022/12/09 10:59:58;;;;;;;26.35;13.15;;;5.70;56.50;;;;;;5019450;28;20493;-49
2022/12/09 11:02:26;;;;;;;19.90;12.70;;;5.70;56.50;;;;;;5020121;28;20046;-42
2022/12/09 11:04:54;;;;;;;20.13;12.90;;;5.70;56.60;;;;;;5021236;28;20053;-45
2022/12/09 11:07:23;;;;;;;23.05;12.95;;;5.70;56.60;;;;;;5026783;22;20046;-43
2022/12/09 11:10:05;;;;;;;21.42;12.60;;;5.70;56.50;;;;;;5024178;28;20497;-46
2022/12/09 11:12:35;;;;;;;19.55;12.02;;;5.60;56.50;;;;;;5021530;28;20645;-45
2022/12/09 11:15:05;;;;;;;20.08;12.20;;;5.60;56.40;;;;;;5019790;28;20049;-43
2022/12/09 11:17:34;;;;;;;18.92;11.75;;;5.70;56.40;;;;;;5019098;28;20049;-42
2022/12/09 11:20:16;;;;;;;28.20;14.63;;;5.60;56.40;;;;;;5024502;28;20084;-43
2022/12/09 11:22:45;;;;;;;25.60;14.68;;;5.60;56.40;;;;;;5024137;28;20076;-42
2022/12/09 11:25:22;;;;;;;27.58;14.45;;;5.60;56.20;;;;;;5024329;28;20076;-43
2022/12/09 11:27:52;;;;;;;24.38;12.82;;;5.60;55.90;;;;;;5018860;28;20480;-44
2022/12/09 11:30:21;;;;;;;21.60;12.55;;;5.60;55.90;;;;;;5022318;28;20057;-42
2022/12/09 11:32:58;;;;;;;20.77;12.60;;;5.50;55.90;;;;;;5024630;28;20049;-43
2022/12/09 11:35:30;;;;;;;18.63;11.80;;;5.40;56.00;;;;;;5022517;28;20053;-46
2022/12/09 11:38:02;;;;;;;20.75;11.77;;;5.40;56.20;;;;;;5020399;28;20053;-43
2022/12/09 11:40:32;;;;;;;30.20;13.88;;;5.40;56.40;;;;;;5017955;28;20054;-42
2022/12/09 11:42:59;;;;;;;25.23;13.93;;;5.40;56.50;;;;;;5017285;28;20056;-42
2022/12/09 11:45:30;;;;;;;21.95;13.48;;;5.40;56.60;;;;;;5022674;28;20057;-46
2022/12/09 11:48:08;;;;;;;25.10;14.35;;;5.40;56.50;;;;;;5022371;28;20500;-42
2022/12/09 11:50:41;;;;;;;25.05;14.55;;;5.30;56.60;;;;;;5019114;28;20053;-43
2022/12/09 11:53:27;;;;;;;25.40;15.70;;;5.30;56.80;;;;;;5020602;28;20053;-41
2022/12/09 11:56:00;;;;;;;24.73;14.63;;;5.30;56.90;;;;;;5023240;28;20484;-43
2022/12/09 11:58:30;;;;;;;26.23;15.68;;;5.20;56.90;;;;;;5015642;28;20061;-46
2022/12/09 12:01:02;;;;;;;25.05;14.10;;;5.20;57.10;;;;;;5018161;28;20395;-43
2022/12/09 12:03:36;;;;;;;21.58;13.38;;;5.20;57.30;;;;;;5018634;28;20496;-42
2022/12/09 12:06:05;;;;;;;;;;;5.10;57.30;;;;;;5021708;28;20140;-41
2022/12/09 12:08:37;;;;;;;24.77;14.00;;;5.20;57.40;;;;;;5017483;28;19948;-44
2022/12/09 12:11:09;;;;;;;27.13;14.73;;;5.20;57.40;;;;;;5019614;28;20409;-44
2022/12/09 12:13:40;;;;;;;20.70;12.98;;;5.20;57.40;;;;;;5020711;28;20054;-49
2022/12/09 12:16:11;;;;;;;24.30;13.10;;;5.20;57.30;;;;;;5021411;28;20599;-44
2022/12/09 12:18:45;;;;;;;20.75;12.93;;;5.20;57.40;;;;;;5021806;28;20053;-47
2022/12/09 12:21:25;;;;;;;;;;;5.20;57.40;;;;;;5015240;28;20049;-43
2022/12/09 12:24:30;;;;;;;20.02;11.30;;;5.30;57.50;;;;;;5018421;28;19936;-43
2022/12/09 12:27:03;;;;;;;;;;;5.30;57.00;;;;;;5013757;28;20509;-43
2022/12/09 12:29:41;;;;;;;18.95;10.55;;;5.30;57.00;;;;;;5024255;28;20392;-43
2022/12/09 12:32:30;;;;;;;18.60;10.50;;;5.40;56.80;;;;;;5016046;28;20500;-41
2022/12/09 12:35:10;;;;;;;20.48;9.80;;;5.40;56.60;;;;;;5013094;28;20057;-48
2022/12/09 12:37:47;;;;;;;15.63;7.88;;;5.40;56.50;;;;;;5017818;28;20065;-45
2022/12/09 12:40:25;;;;;;;15.85;8.68;;;5.40;56.40;;;;;;5016704;28;20061;-46
2022/12/09 12:48:58;;;;;;;11.57;6.70;;;5.50;56.20;;;;;;5023982;28;20071;-44
2022/12/09 12:51:33;;;;;;;12.68;7.70;;;5.60;56.20;;;;;;5013972;28;20046;-44
2022/12/09 12:54:08;;;;;;;14.30;6.75;;;5.60;56.20;;;;;;5023150;28;20058;-42
2022/12/09 12:56:42;;;;;;;12.18;6.78;;;5.70;56.30;;;;;;5023049;28;20057;-45
2022/12/09 12:59:17;;;;;;;11.37;6.70;;;5.70;56.30;;;;;;5023554;28;20057;-42
2022/12/09 13:01:52;;;;;;;10.52;6.20;;;5.80;55.90;;;;;;5018955;28;20487;-42
2022/12/09 13:04:24;;;;;;;12.40;6.50;;;5.80;55.90;;;;;;5023244;28;20053;-45
2022/12/09 13:07:00;;;;;;;12.88;6.35;;;5.90;56.00;;;;;;5020773;28;20535;-42